Time;durP1;ratioP1;P1;durP2;ratioP2;P2;SDS_P1;SDS_P2;PMS_P1;PMS_P2;Temp;Humidity;BMP_temperature;BMP_pressure;BME280_temperature;BME280_humidity;BME280_pressure;Samples;Min_cycle;Max_cycle;Signal;HPM_P1;HPM_P2
2022/07/26 00:01:37;;;;;;;9.40;6.68;;;20.60;99.90;;;;;;6336721;28;20549;-67
2022/07/26 00:04:43;;;;;;;7.63;5.90;;;20.60;99.90;;;;;;6336226;28;20298;-67
2022/07/26 00:07:48;;;;;;;7.13;6.30;;;20.50;99.90;;;;;;6336198;28;20608;-67
2022/07/26 00:10:54;;;;;;;6.00;5.68;;;20.50;99.90;;;;;;6323410;28;20262;-67
2022/07/26 00:14:00;;;;;;;8.82;6.50;;;20.50;99.90;;;;;;6310831;28;20306;-67
2022/07/26 00:17:06;;;;;;;6.80;6.13;;;20.50;99.90;;;;;;6310717;28;20286;-67
2022/07/26 00:20:11;;;;;;;9.85;6.00;;;20.40;99.90;;;;;;6311077;28;20270;-67
2022/07/26 00:23:18;;;;;;;6.35;5.85;;;20.50;99.90;;;;;;6310704;28;20491;-67
2022/07/26 00:26:24;;;;;;;8.52;6.00;;;20.40;99.90;;;;;;6311226;28;20277;-67
2022/07/26 00:29:30;;;;;;;6.75;6.13;;;20.40;99.90;;;;;;6310548;28;20294;-67
2022/07/26 00:32:36;;;;;;;9.15;6.57;;;20.40;99.90;;;;;;6310409;28;20290;-67
2022/07/26 00:35:41;;;;;;;7.97;6.32;;;20.30;99.90;;;;;;6310874;28;20290;-67
2022/07/26 00:38:47;;;;;;;7.18;5.93;;;20.30;99.90;;;;;;6310559;28;20306;-67
2022/07/26 00:41:53;;;;;;;7.22;6.50;;;20.10;99.90;;;;;;6310899;28;20270;-67
2022/07/26 00:44:58;;;;;;;7.18;6.50;;;20.00;99.90;;;;;;6309793;28;20561;-67
2022/07/26 00:48:05;;;;;;;6.32;5.80;;;20.00;99.90;;;;;;6309960;28;20474;-67
2022/07/26 00:51:10;;;;;;;8.88;6.00;;;20.00;99.90;;;;;;6310435;28;20265;-67
2022/07/26 00:54:17;;;;;;;7.78;6.13;;;20.00;99.90;;;;;;6310098;28;20306;-67
2022/07/26 00:57:24;;;;;;;7.75;5.63;;;20.00;99.90;;;;;;6310336;28;20290;-67
2022/07/26 01:00:30;;;;;;;9.32;6.38;;;19.90;99.90;;;;;;6310657;28;20574;-67
2022/07/26 01:03:35;;;;;;;6.53;5.93;;;19.90;99.90;;;;;;6310058;28;20581;-67
2022/07/26 01:06:44;;;;;;;6.88;6.20;;;20.00;99.90;;;;;;6310099;28;20290;-67
2022/07/26 01:09:50;;;;;;;6.80;6.30;;;19.90;99.90;;;;;;6309914;28;20290;-67
2022/07/26 01:12:57;;;;;;;6.28;5.68;;;19.80;99.90;;;;;;6310176;28;20294;-67
2022/07/26 01:16:03;;;;;;;7.28;6.22;;;19.80;99.90;;;;;;6310727;28;20270;-67
2022/07/26 01:19:08;;;;;;;6.53;5.90;;;19.90;99.90;;;;;;6310160;28;20294;-67
2022/07/26 01:22:15;;;;;;;9.43;6.32;;;19.90;99.90;;;;;;6310706;28;20270;-67
2022/07/26 01:25:30;;;;;;;7.72;6.32;;;19.80;99.90;;;;;;6315020;28;20271;-67
2022/07/26 01:28:39;;;;;;;6.57;6.07;;;19.90;99.90;;;;;;6314628;28;20512;-66
2022/07/26 01:31:44;;;;;;;8.38;6.10;;;19.80;99.90;;;;;;6314980;28;20270;-67
2022/07/26 01:34:50;;;;;;;7.13;6.32;;;19.90;99.90;;;;;;6314716;28;20315;-67
2022/07/26 01:37:56;;;;;;;8.32;6.60;;;19.90;99.90;;;;;;6314340;28;20298;-67
2022/07/26 01:41:01;;;;;;;12.50;6.57;;;19.90;99.90;;;;;;6340187;28;20269;-67
2022/07/26 01:44:07;;;;;;;8.50;6.60;;;19.90;99.90;;;;;;6339617;28;20297;-67
2022/07/26 01:47:13;;;;;;;8.15;7.05;;;19.80;99.90;;;;;;6339134;28;20274;-67
2022/07/26 01:50:19;;;;;;;8.32;7.47;;;19.90;99.90;;;;;;6340012;28;20552;-67
2022/07/26 01:53:25;;;;;;;7.80;7.05;;;19.80;99.90;;;;;;6339439;28;20294;-67
2022/07/26 01:56:31;;;;;;;8.77;7.53;;;19.80;99.90;;;;;;6339382;28;20270;-67
2022/07/26 01:59:36;;;;;;;8.57;7.13;;;19.70;99.90;;;;;;6339185;28;20294;-66
2022/07/26 02:02:41;;;;;;;8.23;7.45;;;19.80;99.90;;;;;;6339001;28;20593;-67
2022/07/26 02:05:47;;;;;;;8.02;7.28;;;19.80;99.90;;;;;;6339592;28;20453;-67
2022/07/26 02:08:53;;;;;;;8.90;7.53;;;19.70;99.90;;;;;;6338879;28;20293;-67
2022/07/26 02:11:59;;;;;;;10.23;7.40;;;19.70;99.90;;;;;;6316729;28;20282;-67
2022/07/26 02:15:06;;;;;;;8.63;7.68;;;19.60;99.90;;;;;;6313847;28;20274;-67
2022/07/26 02:18:17;;;;;;;7.72;6.97;;;19.70;99.90;;;;;;6313510;28;20303;-67
2022/07/26 02:21:23;;;;;;;10.52;7.35;;;19.70;99.90;;;;;;6313978;28;20578;-67
2022/07/26 02:24:29;;;;;;;10.25;7.57;;;19.80;99.90;;;;;;6313548;28;20294;-67
2022/07/26 02:27:35;;;;;;;7.93;7.15;;;19.70;99.90;;;;;;6313340;28;20354;-67
2022/07/26 02:30:40;;;;;;;7.65;6.95;;;19.70;99.90;;;;;;6313669;28;20274;-67
2022/07/26 02:33:46;;;;;;;8.55;6.68;;;19.60;99.90;;;;;;6312095;28;20294;-67
2022/07/26 02:36:51;;;;;;;8.57;7.30;;;19.70;99.90;;;;;;6313663;28;20270;-67
2022/07/26 02:39:58;;;;;;;7.88;7.25;;;19.70;99.90;;;;;;6312614;28;20326;-67
2022/07/26 02:43:04;;;;;;;9.38;6.97;;;19.70;99.90;;;;;;6312807;28;20294;-67
2022/07/26 02:46:10;;;;;;;7.28;6.65;;;19.70;99.90;;;;;;6313297;28;20266;-67
2022/07/26 02:49:15;;;;;;;7.95;7.18;;;19.70;99.90;;;;;;6312935;28;20298;-67
2022/07/26 02:52:21;;;;;;;7.90;7.20;;;19.60;99.90;;;;;;6312520;28;20294;-67
2022/07/26 02:55:28;;;;;;;8.10;7.40;;;19.70;99.90;;;;;;6312786;28;20270;-67
2022/07/26 02:58:33;;;;;;;8.75;6.90;;;19.60;99.90;;;;;;6312437;28;20577;-67
2022/07/26 03:01:38;;;;;;;8.30;6.80;;;19.60;99.90;;;;;;6312121;28;20702;-67
2022/07/26 03:04:44;;;;;;;12.48;7.55;;;19.70;99.90;;;;;;6307512;28;20298;-67
2022/07/26 03:07:50;;;;;;;7.78;7.05;;;19.70;99.90;;;;;;6312312;28;20299;-67
2022/07/26 03:10:57;;;;;;;7.93;6.97;;;19.70;99.90;;;;;;6312973;28;20258;-67
2022/07/26 03:14:02;;;;;;;8.50;6.60;;;19.60;99.90;;;;;;6312372;28;20299;-67
2022/07/26 03:17:07;;;;;;;8.07;7.25;;;19.60;99.90;;;;;;6311936;28;20581;-67
2022/07/26 03:20:14;;;;;;;9.60;7.93;;;19.60;99.90;;;;;;6312607;28;20286;-67
2022/07/26 03:23:19;;;;;;;13.38;7.22;;;19.70;99.90;;;;;;6311897;28;20586;-67
2022/07/26 03:26:28;;;;;;;10.65;7.43;;;19.70;99.90;;;;;;6312620;28;20275;-68
2022/07/26 03:29:33;;;;;;;7.65;6.95;;;19.60;99.90;;;;;;6311791;28;20305;-67
2022/07/26 03:32:38;;;;;;;7.50;6.85;;;19.60;99.90;;;;;;6311661;28;20294;-67
2022/07/26 03:35:44;;;;;;;8.55;7.18;;;19.60;99.90;;;;;;6311630;28;20259;-67
2022/07/26 03:38:52;;;;;;;8.18;7.07;;;19.60;99.90;;;;;;6319415;28;20309;-67
2022/07/26 03:41:59;;;;;;;9.27;7.28;;;19.70;99.90;;;;;;6337432;28;20270;-67
2022/07/26 03:45:05;;;;;;;10.90;7.25;;;19.60;99.90;;;;;;6335712;28;20274;-67
2022/07/26 03:48:11;;;;;;;8.50;7.40;;;19.70;99.90;;;;;;6335919;28;20293;-67
2022/07/26 03:51:17;;;;;;;8.25;7.35;;;19.60;99.90;;;;;;6337011;28;20278;-67
2022/07/26 03:54:22;;;;;;;12.52;7.72;;;19.70;99.90;;;;;;6336304;28;20609;-67
2022/07/26 03:57:28;;;;;;;9.38;7.13;;;19.70;99.90;;;;;;6336522;28;20293;-67
2022/07/26 04:00:33;;;;;;;8.10;7.22;;;19.70;99.90;;;;;;6336411;28;20286;-68
2022/07/26 04:03:39;;;;;;;7.85;6.93;;;19.60;99.90;;;;;;6336285;28;20289;-68
2022/07/26 04:06:51;;;;;;;7.88;7.00;;;19.70;99.90;;;;;;6336849;28;20266;-66
2022/07/26 04:09:56;;;;;;;8.05;7.25;;;19.70;99.90;;;;;;6331904;28;20298;-67
2022/07/26 04:13:03;;;;;;;8.15;7.32;;;19.70;99.90;;;;;;6310868;28;20294;-67
2022/07/26 04:16:09;;;;;;;8.45;7.57;;;19.70;99.90;;;;;;6311277;28;20266;-66
2022/07/26 04:19:15;;;;;;;8.82;7.97;;;19.70;99.90;;;;;;6310340;28;20302;-67
2022/07/26 04:22:20;;;;;;;10.52;7.18;;;19.70;99.90;;;;;;6310487;28;20290;-67
2022/07/26 04:25:26;;;;;;;10.13;8.10;;;19.70;99.90;;;;;;6311017;28;20270;-67
2022/07/26 04:28:48;;;;;;;7.63;7.03;;;19.70;99.90;;;;;;6310338;28;20294;-66
2022/07/26 04:31:53;;;;;;;9.32;7.30;;;19.70;99.90;;;;;;6310768;28;20266;-67
2022/07/26 04:34:58;;;;;;;9.38;7.22;;;19.70;99.90;;;;;;6310681;28;20298;-67
2022/07/26 04:38:04;;;;;;;7.80;7.10;;;19.70;99.90;;;;;;6310615;28;20298;-66
2022/07/26 04:41:09;;;;;;;9.35;7.60;;;19.70;99.90;;;;;;6310251;28;20349;-68
2022/07/26 04:44:16;;;;;;;8.20;6.93;;;19.70;99.90;;;;;;6310694;28;20289;-67
2022/07/26 04:47:21;;;;;;;11.10;7.22;;;19.70;99.90;;;;;;6310266;28;20298;-67
2022/07/26 04:50:27;;;;;;;10.52;7.35;;;19.70;99.90;;;;;;6310729;28;20294;-67
2022/07/26 04:53:32;;;;;;;8.30;7.28;;;19.70;99.90;;;;;;6310066;28;20402;-67
2022/07/26 04:56:37;;;;;;;7.38;6.72;;;19.80;99.90;;;;;;6310403;28;20453;-67
2022/07/26 04:59:44;;;;;;;9.00;6.75;;;19.90;99.90;;;;;;6310270;28;20307;-67
2022/07/26 05:03:03;;;;;;;9.02;7.20;;;19.90;99.90;;;;;;6310095;28;20476;-67
2022/07/26 05:06:08;;;;;;;10.50;7.05;;;19.90;99.90;;;;;;6310831;28;20562;-67
2022/07/26 05:09:14;;;;;;;9.43;6.38;;;19.80;99.90;;;;;;6310216;28;20318;-67
2022/07/26 05:12:19;;;;;;;8.38;6.35;;;19.90;99.90;;;;;;6310070;28;20301;-67
2022/07/26 05:15:26;;;;;;;12.52;6.60;;;19.90;99.90;;;;;;6310695;28;20432;-68
2022/07/26 05:18:39;;;;;;;10.63;6.50;;;19.90;99.90;;;;;;6309940;28;20299;-67
2022/07/26 05:21:53;;;;;;;8.13;6.10;;;20.00;99.90;;;;;;6310474;28;20310;-67
2022/07/26 05:24:59;;;;;;;7.10;6.43;;;20.00;99.90;;;;;;6309436;28;20298;-67
2022/07/26 05:28:05;;;;;;;7.78;5.78;;;19.90;99.90;;;;;;6309599;28;20290;-67
2022/07/26 05:31:11;;;;;;;8.30;5.93;;;19.90;99.90;;;;;;6310498;28;20274;-68
2022/07/26 05:34:17;;;;;;;8.05;5.70;;;19.90;99.90;;;;;;6309710;28;20593;-67
2022/07/26 05:37:22;;;;;;;8.48;6.45;;;19.90;99.90;;;;;;6309639;28;20290;-68
2022/07/26 05:40:27;;;;;;;6.68;5.97;;;19.90;99.90;;;;;;6309553;28;20302;-67
2022/07/26 05:43:32;;;;;;;7.13;6.28;;;19.80;99.90;;;;;;6309551;28;20298;-66
2022/07/26 05:46:46;;;;;;;9.90;6.15;;;19.70;99.90;;;;;;6309584;28;20270;-67
2022/07/26 05:49:51;;;;;;;9.75;6.30;;;19.80;99.90;;;;;;6309201;28;20486;-67
2022/07/26 05:52:56;;;;;;;7.07;6.32;;;19.70;99.90;;;;;;6309604;28;20497;-66
2022/07/26 05:56:01;;;;;;;9.88;7.20;;;19.80;99.90;;;;;;6309618;28;20550;-66
2022/07/26 05:59:07;;;;;;;8.27;6.65;;;19.70;99.90;;;;;;6309482;28;20294;-66
2022/07/26 06:02:13;;;;;;;9.43;6.82;;;19.70;99.90;;;;;;6308798;28;20290;-67
2022/07/26 06:05:19;;;;;;;10.90;7.47;;;19.80;99.90;;;;;;6310006;28;20274;-67
2022/07/26 06:08:26;;;;;;;10.88;6.93;;;19.80;99.90;;;;;;6309457;28;20298;-67
2022/07/26 06:11:31;;;;;;;7.68;6.10;;;19.90;99.90;;;;;;6313985;28;20267;-67
2022/07/26 06:14:37;;;;;;;7.28;6.50;;;19.90;99.90;;;;;;6313528;28;20294;-67
2022/07/26 06:17:44;;;;;;;5.03;4.80;;;19.90;99.90;;;;;;6313545;28;20472;-66
2022/07/26 06:20:49;;;;;;;4.72;4.50;;;19.90;99.90;;;;;;6314067;28;20457;-67
2022/07/26 06:23:55;;;;;;;4.18;3.90;;;19.90;99.90;;;;;;6313382;28;20290;-67
2022/07/26 06:27:00;;;;;;;3.58;3.38;;;19.90;99.90;;;;;;6313506;28;20270;-67
2022/07/26 06:30:12;;;;;;;4.50;3.85;;;19.90;99.90;;;;;;6313865;28;20282;-67
2022/07/26 06:33:19;;;;;;;3.40;3.25;;;19.80;99.90;;;;;;6312924;28;20298;-67
2022/07/26 06:36:24;;;;;;;3.42;3.33;;;19.80;99.90;;;;;;6313750;28;20568;-68
2022/07/26 06:39:35;;;;;;;3.50;3.30;;;19.80;99.90;;;;;;6313202;28;20306;-67
2022/07/26 06:42:40;;;;;;;3.55;3.45;;;19.80;99.90;;;;;;6313119;28;20294;-67
2022/07/26 06:45:45;;;;;;;3.90;3.70;;;19.90;99.90;;;;;;6313275;28;20349;-67
2022/07/26 06:48:54;;;;;;;3.88;3.63;;;19.80;99.90;;;;;;6312579;28;20598;-67
2022/07/26 06:52:01;;;;;;;4.07;3.88;;;19.90;99.90;;;;;;6312530;28;20278;-68
2022/07/26 06:55:07;;;;;;;3.85;3.65;;;19.90;99.90;;;;;;6313361;28;20267;-68
2022/07/26 06:58:16;;;;;;;4.25;4.00;;;20.00;99.90;;;;;;6312348;28;20299;-67
2022/07/26 07:01:22;;;;;;;3.90;3.80;;;20.00;99.90;;;;;;6312435;28;20290;-67
2022/07/26 07:04:48;;;;;;;3.90;3.80;;;20.10;99.90;;;;;;6312663;28;20290;-67
2022/07/26 07:07:54;;;;;;;4.75;4.13;;;20.10;99.90;;;;;;6312220;28;20302;-67
2022/07/26 07:11:01;;;;;;;3.85;3.75;;;20.10;99.90;;;;;;6313002;28;20271;-67
2022/07/26 07:14:07;;;;;;;3.78;3.63;;;20.10;99.90;;;;;;6312335;28;20294;-67
2022/07/26 07:17:18;;;;;;;5.28;4.78;;;19.90;99.90;;;;;;6312291;28;20274;-67
2022/07/26 07:20:27;;;;;;;4.68;4.22;;;20.00;99.90;;;;;;6335701;28;20265;-67
2022/07/26 07:23:33;;;;;;;4.38;4.05;;;19.90;99.90;;;;;;6337197;28;20301;-68
2022/07/26 07:26:38;;;;;;;5.18;4.75;;;19.90;99.90;;;;;;6336952;28;20266;-68
2022/07/26 07:29:44;;;;;;;5.05;4.75;;;19.90;99.90;;;;;;6336910;28;20401;-67
2022/07/26 07:32:49;;;;;;;5.22;4.70;;;20.00;99.90;;;;;;6336698;28;20293;-67
2022/07/26 07:35:56;;;;;;;5.72;4.95;;;20.00;99.90;;;;;;6337309;28;20289;-67
2022/07/26 07:39:02;;;;;;;5.05;4.70;;;20.00;99.90;;;;;;6336626;28;20302;-69
2022/07/26 07:42:12;;;;;;;4.95;4.75;;;20.00;99.90;;;;;;6336071;28;20290;-69
2022/07/26 07:45:18;;;;;;;4.68;4.50;;;20.00;99.90;;;;;;6336838;28;20270;-67
2022/07/26 07:48:23;;;;;;;4.10;4.00;;;20.00;99.90;;;;;;6336374;28;20297;-69
2022/07/26 07:51:29;;;;;;;3.50;3.50;;;20.10;99.90;;;;;;6336463;28;20277;-68
2022/07/26 07:54:35;;;;;;;3.88;3.70;;;20.10;99.90;;;;;;6336036;28;20608;-67
2022/07/26 07:57:40;;;;;;;3.38;3.17;;;20.20;99.90;;;;;;6336125;28;20290;-68
2022/07/26 08:00:45;;;;;;;3.40;3.30;;;20.40;99.90;;;;;;6336824;28;20270;-68
2022/07/26 08:03:52;;;;;;;3.25;3.10;;;20.40;99.90;;;;;;6335788;28;20289;-67
2022/07/26 08:06:58;;;;;;;3.30;3.20;;;20.40;99.90;;;;;;6336422;28;20275;-68
2022/07/26 08:10:06;;;;;;;3.47;3.20;;;20.50;99.90;;;;;;6330811;28;20278;-68
2022/07/26 08:13:14;;;;;;;3.50;3.20;;;20.50;99.90;;;;;;6311062;28;20292;-67
2022/07/26 08:16:25;;;;;;;3.30;3.10;;;20.50;99.90;;;;;;6311349;28;20270;-68
2022/07/26 08:19:30;;;;;;;3.10;3.00;;;20.60;99.90;;;;;;6310770;28;20321;-68
2022/07/26 08:22:49;;;;;;;3.00;2.80;;;20.70;99.90;;;;;;6310149;28;20302;-68
2022/07/26 08:25:54;;;;;;;3.13;2.92;;;20.70;99.90;;;;;;6310530;28;20278;-68
2022/07/26 08:29:03;;;;;;;3.08;2.88;;;20.80;99.90;;;;;;6310664;28;20299;-68
2022/07/26 08:32:11;;;;;;;3.10;2.90;;;20.70;99.90;;;;;;6309483;28;20270;-68
2022/07/26 08:35:16;;;;;;;3.47;3.17;;;20.70;99.90;;;;;;6310625;28;20275;-68
2022/07/26 08:38:25;;;;;;;3.28;3.08;;;20.80;99.90;;;;;;6310110;28;20294;-68
2022/07/26 08:41:31;;;;;;;5.13;3.05;;;20.80;99.90;;;;;;6310848;28;20271;-68
2022/07/26 08:44:36;;;;;;;3.92;3.28;;;20.80;99.90;;;;;;6310493;28;20297;-68
2022/07/26 08:47:41;;;;;;;3.20;3.00;;;20.90;99.90;;;;;;6308622;28;20461;-68
2022/07/26 08:51:09;;;;;;;3.55;3.25;;;21.00;99.90;;;;;;6310334;28;20274;-68
2022/07/26 08:54:16;;;;;;;3.15;3.00;;;20.90;99.90;;;;;;6309888;28;20621;-68
2022/07/26 08:57:21;;;;;;;3.25;3.10;;;20.80;99.90;;;;;;6310141;28;20290;-68
2022/07/26 09:00:30;;;;;;;3.75;3.58;;;20.70;99.90;;;;;;6310642;28;20275;-68
2022/07/26 09:03:37;;;;;;;4.68;4.25;;;20.80;99.90;;;;;;6309963;28;20294;-67
2022/07/26 09:06:56;;;;;;;3.90;3.58;;;20.90;99.90;;;;;;6310614;28;20274;-68
2022/07/26 09:10:06;;;;;;;3.22;3.03;;;20.90;99.90;;;;;;6289151;28;20270;-68
2022/07/26 09:13:12;;;;;;;3.78;3.40;;;21.00;99.90;;;;;;6310312;28;20298;-68
2022/07/26 09:16:17;;;;;;;3.10;2.85;;;20.90;99.90;;;;;;6310502;28;20573;-68
2022/07/26 09:19:23;;;;;;;6.72;3.88;;;20.80;99.90;;;;;;6309899;28;20314;-68
2022/07/26 09:22:28;;;;;;;3.65;3.33;;;20.80;99.90;;;;;;6310004;28;20290;-69
2022/07/26 09:25:38;;;;;;;3.85;2.95;;;20.80;99.90;;;;;;6310351;28;20537;-67
2022/07/26 09:28:43;;;;;;;7.05;3.10;;;20.80;99.90;;;;;;6309929;28;20298;-67
2022/07/26 09:31:49;;;;;;;4.00;3.80;;;20.80;99.90;;;;;;6310233;28;20270;-68
2022/07/26 09:34:56;;;;;;;4.78;3.72;;;20.90;99.90;;;;;;6309579;28;20303;-68
2022/07/26 09:38:12;;;;;;;3.35;3.00;;;21.00;99.90;;;;;;6309754;28;20294;-67
2022/07/26 09:41:24;;;;;;;2.90;2.65;;;21.00;99.90;;;;;;6285278;28;20275;-68
2022/07/26 09:44:29;;;;;;;4.45;3.00;;;21.10;99.90;;;;;;6287259;28;20479;-67
2022/07/26 09:47:39;;;;;;;2.50;2.42;;;21.00;99.90;;;;;;6289018;28;20500;-68
2022/07/26 09:50:48;;;;;;;2.97;2.72;;;21.20;99.90;;;;;;6290343;28;20554;-67
2022/07/26 09:53:53;;;;;;;6.13;3.58;;;21.10;99.90;;;;;;6289269;28;20590;-68
2022/07/26 09:57:00;;;;;;;3.45;3.25;;;21.20;99.90;;;;;;6289544;28;20271;-68
2022/07/26 10:00:07;;;;;;;3.42;3.13;;;21.30;99.90;;;;;;6288687;28;20279;-68
2022/07/26 10:03:16;;;;;;;3.30;3.05;;;21.30;99.90;;;;;;6272006;28;20295;-68
2022/07/26 10:06:22;;;;;;;3.42;3.22;;;21.30;99.90;;;;;;6289313;28;20271;-69
2022/07/26 10:09:42;;;;;;;3.05;2.50;;;21.30;99.90;;;;;;6287908;28;20291;-67
2022/07/26 10:12:51;;;;;;;3.80;3.17;;;21.30;99.90;;;;;;6270826;28;20291;-67
2022/07/26 10:15:59;;;;;;;7.50;3.20;;;21.30;99.90;;;;;;6289660;28;20567;-67
2022/07/26 10:19:06;;;;;;;3.35;2.85;;;21.40;99.90;;;;;;6288793;28;20298;-67
2022/07/26 10:22:25;;;;;;;3.50;2.80;;;21.50;99.90;;;;;;6289101;28;20267;-68
2022/07/26 10:25:47;;;;;;;3.05;2.83;;;21.60;99.90;;;;;;6289014;28;20291;-68
2022/07/26 10:28:54;;;;;;;4.18;2.80;;;21.70;99.90;;;;;;6288570;28;20563;-68
2022/07/26 10:32:18;;;;;;;3.63;2.80;;;21.60;99.90;;;;;;6288122;28;20276;-68
2022/07/26 10:35:31;;;;;;;3.05;2.70;;;21.60;99.90;;;;;;6288562;28;20275;-68
2022/07/26 10:38:38;;;;;;;3.22;2.85;;;21.60;99.90;;;;;;6291485;28;20310;-68
2022/07/26 10:41:46;;;;;;;3.58;2.78;;;21.60;99.90;;;;;;6313538;28;20270;-68
2022/07/26 10:44:52;;;;;;;3.47;2.90;;;21.50;99.90;;;;;;6312718;28;20302;-68
2022/07/26 10:48:12;;;;;;;4.97;3.00;;;21.50;99.90;;;;;;6312535;28;20290;-68
2022/07/26 10:51:26;;;;;;;3.03;2.83;;;21.60;99.90;;;;;;6313536;28;20275;-68
2022/07/26 10:54:32;;;;;;;2.80;2.60;;;21.70;99.90;;;;;;6312192;28;20299;-68
2022/07/26 10:57:39;;;;;;;2.78;2.58;;;21.70;99.90;;;;;;6312411;28;20453;-69
2022/07/26 11:00:57;;;;;;;2.90;2.70;;;21.80;99.90;;;;;;6312817;28;20286;-67
2022/07/26 11:04:03;;;;;;;5.15;2.40;;;21.80;99.90;;;;;;6312365;28;20299;-68
2022/07/26 11:07:11;;;;;;;3.97;2.35;;;21.80;99.90;;;;;;6312098;28;20266;-67
2022/07/26 11:10:22;;;;;;;2.55;2.30;;;21.90;99.90;;;;;;6312939;28;20262;-67
2022/07/26 11:13:27;;;;;;;4.57;2.90;;;22.10;99.90;;;;;;6312541;28;20295;-68
2022/07/26 11:16:39;;;;;;;2.67;2.55;;;22.20;99.90;;;;;;6312413;28;20271;-68
2022/07/26 11:19:45;;;;;;;3.10;2.97;;;22.30;99.90;;;;;;6312328;28;20298;-68
2022/07/26 11:22:50;;;;;;;3.00;2.65;;;22.40;99.90;;;;;;6311846;28;20303;-67
2022/07/26 11:26:07;;;;;;;2.40;2.30;;;22.40;99.90;;;;;;6312023;28;20290;-67
2022/07/26 11:29:13;;;;;;;2.30;2.20;;;22.60;99.90;;;;;;6311818;28;20295;-68
2022/07/26 11:32:25;;;;;;;2.47;2.17;;;22.60;99.90;;;;;;6312036;28;20294;-68
2022/07/26 11:35:30;;;;;;;3.15;2.95;;;22.70;99.90;;;;;;6312235;28;20279;-68
2022/07/26 11:39:00;;;;;;;2.65;2.47;;;22.70;99.90;;;;;;6309008;28;20299;-68
2022/07/26 11:42:07;;;;;;;3.58;2.20;;;22.80;99.90;;;;;;6301548;28;20274;-68
2022/07/26 11:45:15;;;;;;;3.33;2.40;;;22.80;99.90;;;;;;6312453;28;20286;-69
2022/07/26 11:48:22;;;;;;;2.80;2.30;;;22.90;99.90;;;;;;6310894;28;20462;-68
2022/07/26 11:51:28;;;;;;;3.50;2.55;;;23.00;99.90;;;;;;6311845;28;20498;-69
2022/07/26 11:54:44;;;;;;;6.97;2.92;;;23.00;99.90;;;;;;6311120;28;20294;-68
2022/07/26 11:57:50;;;;;;;2.75;2.40;;;23.10;99.60;;;;;;6311157;28;20290;-68
2022/07/26 12:00:56;;;;;;;2.22;2.13;;;23.00;99.90;;;;;;6311079;28;20287;-69
2022/07/26 12:04:03;;;;;;;2.72;2.20;;;22.90;99.90;;;;;;6311066;28;20586;-68
2022/07/26 12:07:13;;;;;;;3.85;2.50;;;22.70;99.90;;;;;;6310497;28;20294;-68
2022/07/26 12:10:20;;;;;;;3.55;2.53;;;22.40;99.90;;;;;;6311357;28;20262;-68
2022/07/26 12:13:25;;;;;;;3.13;2.45;;;22.20;99.90;;;;;;6310619;28;20294;-68
2022/07/26 12:16:44;;;;;;;2.85;2.67;;;22.10;99.90;;;;;;6311123;28;20269;-68
2022/07/26 12:19:51;;;;;;;2.90;2.65;;;22.00;99.90;;;;;;6310906;28;20481;-68
2022/07/26 12:22:59;;;;;;;3.42;3.08;;;22.10;99.90;;;;;;6310861;28;20459;-67
2022/07/26 12:26:20;;;;;;;3.70;2.90;;;22.00;99.90;;;;;;6311695;28;20570;-67
2022/07/26 12:29:32;;;;;;;3.13;2.92;;;21.80;99.90;;;;;;6310538;28;20302;-67
2022/07/26 12:32:40;;;;;;;4.97;4.53;;;21.80;99.90;;;;;;6310575;28;20285;-68
2022/07/26 12:35:47;;;;;;;3.05;2.88;;;21.60;99.90;;;;;;6310592;28;20266;-68
2022/07/26 12:38:52;;;;;;;4.20;3.90;;;21.50;99.90;;;;;;6310244;28;20307;-68
2022/07/26 12:41:58;;;;;;;4.03;3.25;;;21.30;99.90;;;;;;6311215;28;20270;-68
2022/07/26 12:45:07;;;;;;;3.03;2.65;;;21.30;99.90;;;;;;6310224;28;20301;-68
2022/07/26 12:48:12;;;;;;;4.03;2.88;;;21.30;99.90;;;;;;6310174;28;20294;-68
2022/07/26 12:51:19;;;;;;;4.85;2.90;;;21.20;99.90;;;;;;6311019;28;20266;-68
2022/07/26 12:54:24;;;;;;;3.17;2.83;;;21.10;99.90;;;;;;6310234;28;20475;-68
2022/07/26 12:57:34;;;;;;;3.22;3.00;;;21.20;99.90;;;;;;6309526;28;20290;-68
2022/07/26 13:00:41;;;;;;;2.70;2.50;;;21.40;99.90;;;;;;6310213;28;20462;-68
2022/07/26 13:03:46;;;;;;;2.97;2.78;;;21.50;99.90;;;;;;6310027;28;20290;-69
2022/07/26 13:06:52;;;;;;;2.60;2.50;;;21.60;99.90;;;;;;6310091;28;20291;-69
2022/07/26 13:09:58;;;;;;;2.47;2.40;;;21.70;99.90;;;;;;6309372;28;20294;-68
2022/07/26 13:13:24;;;;;;;2.90;2.22;;;21.80;99.90;;;;;;6310121;28;20298;-68
2022/07/26 13:16:29;;;;;;;2.60;2.50;;;21.80;99.90;;;;;;6309910;28;20274;-68
2022/07/26 13:19:35;;;;;;;2.42;2.20;;;21.90;99.90;;;;;;6312915;28;20478;-68
2022/07/26 13:22:42;;;;;;;4.00;2.17;;;22.00;99.90;;;;;;6314275;28;20290;-68
2022/07/26 13:25:48;;;;;;;3.33;2.10;;;22.10;99.90;;;;;;6315706;28;20306;-67
2022/07/26 13:28:53;;;;;;;2.13;2.03;;;22.10;99.90;;;;;;6314942;28;20345;-67
2022/07/26 13:31:59;;;;;;;1.60;1.60;;;22.30;99.90;;;;;;6314905;28;20330;-68
2022/07/26 13:35:04;;;;;;;3.65;1.60;;;22.20;99.90;;;;;;6314578;28;20278;-67
2022/07/26 13:38:15;;;;;;;1.90;1.80;;;22.30;99.90;;;;;;6314781;28;20510;-67
2022/07/26 13:41:20;;;;;;;1.67;1.58;;;22.50;99.90;;;;;;6315319;28;20298;-67
2022/07/26 13:44:25;;;;;;;1.65;1.55;;;22.60;99.90;;;;;;6314352;28;20294;-67
2022/07/26 13:47:30;;;;;;;1.77;1.77;;;23.10;99.90;;;;;;6314304;28;20290;-67
2022/07/26 13:50:36;;;;;;;1.92;1.80;;;23.80;99.90;;;;;;6315483;28;20266;-67
2022/07/26 13:53:43;;;;;;;2.08;1.90;;;23.90;99.90;;;;;;6330217;28;20306;-68
2022/07/26 13:57:02;;;;;;;1.70;1.58;;;23.60;99.90;;;;;;6314601;28;20276;-68
2022/07/26 14:00:11;;;;;;;2.42;1.90;;;23.40;99.90;;;;;;6313664;28;20274;-68
2022/07/26 14:03:17;;;;;;;1.60;1.60;;;23.10;99.90;;;;;;6313933;28;20609;-68
2022/07/26 14:06:22;;;;;;;2.05;1.70;;;22.80;99.90;;;;;;6314704;28;20294;-68
2022/07/26 14:09:29;;;;;;;1.73;1.73;;;22.80;99.90;;;;;;6313852;28;20294;-68
2022/07/26 14:12:35;;;;;;;1.92;1.83;;;22.70;99.90;;;;;;6288809;28;20303;-68
2022/07/26 14:15:41;;;;;;;2.33;2.08;;;22.50;99.90;;;;;;6289123;28;20275;-68
2022/07/26 14:18:46;;;;;;;1.95;1.85;;;22.50;99.90;;;;;;6288390;28;20295;-67
2022/07/26 14:21:52;;;;;;;2.58;1.98;;;22.50;99.90;;;;;;6288748;28;20271;-67
2022/07/26 14:25:06;;;;;;;2.28;2.17;;;22.50;99.90;;;;;;6288172;28;20452;-67
2022/07/26 14:28:12;;;;;;;2.10;2.00;;;22.40;99.90;;;;;;6288246;28;20555;-68
2022/07/26 14:31:18;;;;;;;2.88;2.03;;;22.20;99.90;;;;;;6287668;28;20274;-67
2022/07/26 14:34:23;;;;;;;1.65;1.50;;;22.20;99.90;;;;;;6288109;28;20299;-68
2022/07/26 14:37:28;;;;;;;1.70;1.60;;;22.10;99.90;;;;;;6288542;28;20294;-68
2022/07/26 14:40:50;;;;;;;1.55;1.45;;;22.20;99.90;;;;;;6287928;28;20319;-68
2022/07/26 14:43:55;;;;;;;1.67;1.67;;;22.20;99.90;;;;;;6288132;28;20295;-68
2022/07/26 14:47:01;;;;;;;2.60;1.85;;;22.40;99.90;;;;;;6287970;28;20294;-68
2022/07/26 14:50:15;;;;;;;1.75;1.65;;;22.50;99.90;;;;;;6288100;28;20272;-67
2022/07/26 14:53:21;;;;;;;3.17;1.40;;;22.70;99.90;;;;;;6288055;28;20582;-67
2022/07/26 14:56:27;;;;;;;1.88;1.10;;;22.80;99.90;;;;;;6288103;28;20275;-68
2022/07/26 14:59:33;;;;;;;1.00;1.00;;;22.80;99.70;;;;;;6287893;28;20303;-67
2022/07/26 15:02:39;;;;;;;1.30;1.30;;;22.60;99.90;;;;;;6287372;28;20282;-67
2022/07/26 15:05:45;;;;;;;4.53;1.30;;;22.50;99.90;;;;;;6288005;28;20271;-67
2022/07/26 15:08:50;;;;;;;1.55;1.30;;;22.30;99.90;;;;;;6287652;28;20492;-68
2022/07/26 15:11:57;;;;;;;1.20;1.10;;;22.20;99.90;;;;;;6308198;28;20543;-67
2022/07/26 15:15:02;;;;;;;1.13;1.10;;;22.30;99.90;;;;;;6311492;28;20451;-67
2022/07/26 15:18:08;;;;;;;4.53;1.20;;;22.20;99.70;;;;;;6311894;28;20298;-67
2022/07/26 15:21:14;;;;;;;1.70;1.10;;;22.30;99.90;;;;;;6312384;28;20262;-67
2022/07/26 15:24:20;;;;;;;1.63;1.15;;;22.20;99.50;;;;;;6311582;28;20294;-67
2022/07/26 15:27:29;;;;;;;1.25;1.13;;;22.20;99.90;;;;;;6311318;28;20310;-68
2022/07/26 15:30:36;;;;;;;1.25;1.05;;;22.20;99.70;;;;;;6312427;28;20275;-68
2022/07/26 15:33:41;;;;;;;1.23;1.05;;;22.20;99.10;;;;;;6311225;28;20307;-68
2022/07/26 15:36:46;;;;;;;3.00;1.20;;;22.10;99.90;;;;;;6312003;28;20353;-68
2022/07/26 15:39:51;;;;;;;1.15;1.08;;;22.00;99.60;;;;;;6311480;28;20467;-67
2022/07/26 15:42:58;;;;;;;2.47;1.30;;;22.00;99.20;;;;;;6311171;28;20308;-67
2022/07/26 15:46:04;;;;;;;3.17;1.00;;;22.00;99.90;;;;;;6311155;28;20286;-67
2022/07/26 15:49:12;;;;;;;1.80;1.00;;;21.90;98.60;;;;;;6311351;28;20234;-67
2022/07/26 15:52:18;;;;;;;2.78;0.93;;;21.90;99.60;;;;;;6311326;28;20335;-67
2022/07/26 15:55:23;;;;;;;1.35;0.80;;;21.80;98.70;;;;;;6311918;28;20271;-67
2022/07/26 15:58:31;;;;;;;1.85;1.00;;;21.90;98.20;;;;;;6311199;28;20298;-67
2022/07/26 16:01:37;;;;;;;2.58;0.90;;;21.90;96.70;;;;;;6311491;28;20275;-67
2022/07/26 16:04:43;;;;;;;0.93;0.93;;;21.90;97.50;;;;;;6310413;28;20581;-68
2022/07/26 16:07:48;;;;;;;2.13;1.10;;;21.70;96.50;;;;;;6310499;28;20294;-68
2022/07/26 16:10:53;;;;;;;1.50;0.93;;;21.80;97.20;;;;;;6311036;28;20262;-68
2022/07/26 16:14:00;;;;;;;1.65;0.90;;;21.80;96.20;;;;;;6311149;28;20294;-68